createdAt,value
2019-03-08T00:02:15.553Z,8.10
2019-03-08T00:04:47.213Z,8.00
2019-03-08T00:07:18.553Z,8.00
2019-03-08T00:09:51.541Z,8.00
2019-03-08T00:12:22.880Z,8.00
2019-03-08T00:14:54.713Z,8.00
2019-03-08T00:17:26.688Z,8.00
2019-03-08T00:19:58.380Z,8.00
2019-03-08T00:22:30.013Z,8.00
2019-03-08T00:25:01.612Z,8.10
2019-03-08T00:27:33.093Z,8.00
2019-03-08T00:30:05.115Z,8.00
2019-03-08T00:32:36.573Z,8.00
2019-03-08T00:35:08.058Z,8.00
2019-03-08T00:37:39.397Z,8.00
2019-03-08T00:40:10.956Z,8.00
2019-03-08T00:42:44.497Z,8.00
2019-03-08T00:45:16.303Z,8.00
2019-03-08T00:47:47.646Z,8.00
2019-03-08T00:50:19.138Z,8.00
2019-03-08T00:52:50.425Z,8.00
2019-03-08T00:55:21.980Z,8.10
2019-03-08T00:57:53.301Z,8.00
2019-03-08T01:00:24.769Z,8.10
2019-03-08T01:02:56.251Z,8.10
2019-03-08T01:05:30.161Z,8.10
2019-03-08T01:08:01.760Z,8.10
2019-03-08T01:10:34.949Z,8.10
2019-03-08T01:13:06.276Z,8.10
2019-03-08T01:15:37.570Z,8.10
2019-03-08T01:18:09.538Z,8.10
2019-03-08T01:20:41.988Z,8.10
2019-03-08T01:23:13.611Z,8.10
2019-03-08T01:25:44.904Z,8.10
2019-03-08T01:28:16.684Z,8.10
2019-03-08T01:30:48.076Z,8.10
2019-03-08T01:33:21.186Z,8.10
2019-03-08T01:35:52.588Z,8.10
2019-03-08T01:38:23.940Z,8.10
2019-03-08T01:40:55.600Z,8.10
2019-03-08T01:43:26.925Z,8.00
2019-03-08T01:46:00.352Z,7.90
2019-03-08T01:48:31.673Z,7.80
2019-03-08T01:51:02.980Z,7.70
2019-03-08T01:53:34.465Z,7.70
2019-03-08T01:56:05.864Z,7.60
2019-03-08T01:58:37.345Z,7.60
2019-03-08T02:01:09.815Z,7.60
2019-03-08T02:03:43.454Z,7.50
2019-03-08T02:06:15.330Z,7.50
2019-03-08T02:08:46.895Z,7.50
2019-03-08T02:11:18.471Z,7.50
2019-03-08T02:13:49.767Z,7.50
2019-03-08T02:16:21.143Z,7.40
2019-03-08T02:18:52.541Z,7.40
2019-03-08T02:21:24.391Z,7.50
2019-03-08T02:23:56.289Z,7.40
2019-03-08T02:26:27.882Z,7.40
2019-03-08T02:28:59.213Z,7.40
2019-03-08T02:31:30.559Z,7.30
2019-03-08T02:34:02.341Z,7.30
2019-03-08T02:36:33.815Z,7.30
2019-03-08T02:39:08.111Z,7.20
2019-03-08T02:41:40.484Z,7.20
2019-03-08T02:44:13.526Z,7.20
2019-03-08T02:46:44.820Z,7.20
2019-03-08T02:49:17.329Z,7.20
2019-03-08T02:51:49.269Z,7.20
2019-03-08T02:54:20.599Z,7.10
2019-03-08T02:56:51.938Z,7.10
2019-03-08T02:59:23.392Z,7.00
2019-03-08T03:01:54.763Z,7.00
2019-03-08T03:04:26.433Z,7.00
2019-03-08T03:06:58.060Z,7.00
2019-03-08T03:09:30.478Z,6.90
2019-03-08T03:12:01.925Z,7.00
2019-03-08T03:14:33.778Z,7.00
2019-03-08T03:17:04.996Z,7.00
2019-03-08T03:19:36.702Z,7.00
2019-03-08T03:22:08.280Z,7.00
2019-03-08T03:24:39.866Z,7.00
2019-03-08T03:27:11.209Z,7.00
2019-03-08T03:29:43.188Z,7.00
2019-03-08T03:32:15.218Z,7.00
2019-03-08T03:34:46.529Z,7.00
2019-03-08T03:37:19.050Z,6.90
2019-03-08T03:39:50.358Z,6.80
2019-03-08T03:42:22.074Z,6.70
2019-03-08T03:44:53.375Z,6.70
2019-03-08T03:47:25.034Z,6.70
2019-03-08T03:49:56.373Z,6.60
2019-03-08T03:52:28.234Z,6.60
2019-03-08T03:54:59.887Z,6.50
2019-03-08T03:57:31.532Z,6.50
2019-03-08T04:00:03.375Z,6.50
2019-03-08T04:02:34.950Z,6.40
2019-03-08T04:05:06.696Z,6.40
2019-03-08T04:07:38.080Z,6.30
2019-03-08T04:10:10.877Z,6.20
2019-03-08T04:12:42.342Z,6.20
2019-03-08T04:15:21.955Z,6.10
2019-03-08T04:17:53.352Z,6.10
2019-03-08T04:20:24.959Z,6.10
2019-03-08T04:22:56.470Z,6.10
2019-03-08T04:25:28.032Z,6.00
2019-03-08T04:28:01.295Z,5.90
2019-03-08T04:30:33.591Z,5.90
2019-03-08T04:33:04.934Z,5.90
2019-03-08T04:35:36.197Z,5.80
2019-03-08T04:38:07.729Z,5.80
2019-03-08T04:40:38.999Z,5.80
2019-03-08T04:43:10.402Z,5.70
2019-03-08T04:45:41.795Z,5.70
2019-03-08T04:48:14.608Z,5.70
2019-03-08T04:50:46.328Z,5.60
2019-03-08T04:53:18.033Z,5.60
2019-03-08T04:55:49.288Z,5.60
2019-03-08T04:58:20.679Z,5.60
2019-03-08T05:00:52.146Z,5.60
2019-03-08T05:03:23.663Z,5.50
2019-03-08T05:05:55.387Z,5.40
2019-03-08T05:08:26.853Z,5.40
2019-03-08T05:11:00.410Z,5.40
2019-03-08T05:13:50.934Z,5.30
2019-03-08T05:16:22.471Z,5.20
2019-03-08T05:18:53.929Z,5.20
2019-03-08T05:21:25.559Z,5.10
2019-03-08T05:23:56.945Z,5.00
2019-03-08T05:26:29.855Z,5.00
2019-03-08T05:29:01.312Z,5.00
2019-03-08T05:31:32.956Z,5.00
2019-03-08T05:34:04.233Z,5.00
2019-03-08T05:36:35.610Z,5.10
2019-03-08T05:39:11.230Z,5.10
2019-03-08T05:41:43.087Z,5.10
2019-03-08T05:44:14.523Z,5.10
2019-03-08T05:46:45.880Z,5.10
2019-03-08T05:49:17.424Z,5.10
2019-03-08T05:51:48.700Z,5.10
2019-03-08T05:54:20.112Z,5.10
2019-03-08T05:56:51.566Z,5.10
2019-03-08T05:59:22.944Z,5.10
2019-03-08T06:01:54.613Z,5.10
2019-03-08T06:04:26.098Z,5.10
2019-03-08T06:06:58.752Z,5.00
2019-03-08T06:09:31.486Z,4.90
2019-03-08T06:12:02.766Z,4.80
2019-03-08T06:14:34.910Z,4.90
2019-03-08T06:17:06.794Z,4.80
2019-03-08T06:19:38.547Z,4.70
2019-03-08T06:22:10.347Z,4.70
2019-03-08T06:24:41.773Z,4.60
2019-03-08T06:27:13.478Z,4.70
2019-03-08T06:29:45.380Z,4.70
2019-03-08T06:32:18.700Z,4.70
2019-03-08T06:34:50.060Z,4.70
2019-03-08T06:37:22.019Z,4.70
2019-03-08T06:39:53.522Z,4.70
2019-03-08T06:42:25.371Z,4.70
2019-03-08T06:44:57.570Z,4.70
2019-03-08T06:47:29.375Z,4.70
2019-03-08T06:50:00.753Z,4.70
2019-03-08T06:52:32.418Z,4.80
2019-03-08T06:55:04.187Z,4.80
2019-03-08T06:57:37.174Z,4.80
2019-03-08T07:00:30.346Z,4.90
2019-03-08T07:03:02.052Z,4.90
2019-03-08T07:05:34.385Z,5.00
2019-03-08T07:08:06.179Z,5.20
2019-03-08T07:10:37.759Z,5.30
2019-03-08T07:13:09.231Z,5.40
2019-03-08T07:15:41.891Z,5.50
2019-03-08T07:18:13.263Z,5.60
2019-03-08T07:20:51.801Z,5.60
2019-03-08T07:23:54.516Z,5.70
2019-03-08T07:26:43.433Z,5.80
2019-03-08T07:29:32.858Z,5.90
2019-03-08T07:32:26.493Z,6.00
2019-03-08T07:35:12.567Z,6.10
2019-03-08T07:37:51.299Z,6.20
2019-03-08T07:40:40.491Z,6.40
2019-03-08T07:43:43.216Z,6.50
2019-03-08T07:46:33.920Z,6.50
2019-03-08T07:49:30.335Z,6.70
2019-03-08T07:52:27.535Z,6.80
2019-03-08T07:55:21.229Z,6.90
2019-03-08T07:58:17.401Z,7.00
2019-03-08T08:00:59.593Z,7.10
2019-03-08T08:03:46.240Z,7.10
2019-03-08T08:06:36.950Z,7.20
2019-03-08T08:09:27.203Z,7.30
2019-03-08T08:12:06.155Z,7.40
2019-03-08T08:14:43.939Z,7.50
2019-03-08T08:17:31.550Z,7.60
2019-03-08T08:20:20.417Z,7.70
2019-03-08T08:23:03.274Z,7.80
2019-03-08T08:26:07.519Z,7.90
2019-03-08T08:29:11.534Z,7.90
2019-03-08T08:31:58.540Z,8.00
2019-03-08T08:34:47.575Z,8.00
2019-03-08T08:37:25.922Z,8.10
2019-03-08T08:40:28.356Z,8.20
2019-03-08T08:43:19.813Z,8.20
2019-03-08T08:46:15.810Z,8.10
2019-03-08T08:49:06.486Z,8.30
2019-03-08T08:51:45.086Z,8.30
2019-03-08T08:54:38.531Z,8.40
2019-03-08T08:57:30.479Z,8.40
2019-03-08T09:00:27.069Z,8.50
2019-03-08T09:03:21.412Z,8.50
2019-03-08T09:06:16.908Z,8.60
2019-03-08T09:09:14.212Z,8.70
2019-03-08T09:11:55.330Z,8.80
2019-03-08T09:14:31.232Z,8.90
2019-03-08T09:17:27.585Z,8.90
2019-03-08T09:20:29.975Z,9.00
2019-03-08T09:23:08.538Z,9.10
2019-03-08T09:25:47.478Z,9.30
2019-03-08T09:28:39.329Z,9.20
2019-03-08T09:31:37.328Z,9.20
2019-03-08T09:34:28.809Z,9.40
2019-03-08T09:37:12.578Z,9.40
2019-03-08T09:40:01.583Z,9.40
2019-03-08T09:42:54.812Z,9.40
2019-03-08T09:45:51.501Z,9.50
2019-03-08T09:48:48.289Z,9.60
2019-03-08T09:51:38.422Z,9.70
2019-03-08T09:54:32.217Z,9.90
2019-03-08T09:57:20.418Z,9.80
2019-03-08T10:00:03.870Z,9.90
2019-03-08T10:02:47.956Z,9.70
2019-03-08T10:05:38.512Z,9.50
2019-03-08T10:08:27.853Z,9.50
2019-03-08T10:11:28.841Z,9.60
2019-03-08T10:14:18.029Z,9.70
2019-03-08T10:17:17.682Z,10.00
2019-03-08T10:19:58.203Z,9.90
2019-03-08T10:22:48.533Z,10.00
2019-03-08T10:25:42.082Z,10.10
2019-03-08T10:28:39.321Z,10.10
2019-03-08T10:31:30.909Z,10.00
2019-03-08T10:34:21.102Z,9.80
2019-03-08T10:37:03.401Z,9.70
2019-03-08T10:39:40.911Z,9.50
2019-03-08T10:42:23.741Z,9.60
2019-03-08T10:45:09.779Z,9.60
2019-03-08T10:47:56.125Z,9.90
2019-03-08T10:50:35.898Z,10.00
2019-03-08T10:53:29.748Z,10.10
2019-03-08T10:56:19.766Z,9.90
2019-03-08T10:59:10.130Z,9.70
2019-03-08T11:01:59.909Z,9.80
2019-03-08T11:04:55.988Z,9.90
2019-03-08T11:07:45.009Z,10.40
2019-03-08T11:10:33.830Z,11.00
2019-03-08T11:13:22.834Z,11.40
2019-03-08T11:16:06.028Z,11.60
2019-03-08T11:19:08.725Z,11.70
2019-03-08T11:22:16.035Z,11.80
2019-03-08T11:25:08.104Z,11.60
2019-03-08T11:27:49.802Z,10.70
2019-03-08T11:30:31.365Z,10.40
2019-03-08T11:33:15.503Z,10.00
2019-03-08T11:36:04.870Z,9.90
2019-03-08T11:38:55.364Z,9.90
2019-03-08T11:41:31.387Z,9.80
2019-03-08T11:44:15.106Z,9.70
2019-03-08T11:47:07.282Z,9.60
2019-03-08T11:49:51.006Z,9.90
2019-03-08T11:52:50.102Z,10.00
2019-03-08T11:55:28.890Z,10.10
2019-03-08T11:58:26.432Z,10.20
2019-03-08T12:01:16.683Z,10.30
2019-03-08T12:04:07.607Z,10.40
2019-03-08T12:07:13.809Z,10.60
2019-03-08T12:10:07.037Z,10.70
2019-03-08T12:13:00.338Z,10.80
2019-03-08T12:15:49.663Z,10.80
2019-03-08T12:18:31.676Z,10.80
2019-03-08T12:21:20.814Z,10.70
2019-03-08T12:24:11.288Z,10.60
2019-03-08T12:26:57.082Z,10.40
2019-03-08T12:29:53.687Z,10.20
2019-03-08T12:32:43.966Z,10.00
2019-03-08T12:35:38.680Z,10.00
2019-03-08T12:38:27.561Z,9.90
2019-03-08T12:41:20.774Z,10.20
2019-03-08T12:44:00.182Z,10.50
2019-03-08T12:47:06.733Z,11.00
2019-03-08T12:49:55.977Z,11.40
2019-03-08T12:53:01.655Z,11.90
2019-03-08T12:55:51.896Z,12.20
2019-03-08T12:58:45.437Z,12.30
2019-03-08T13:01:42.718Z,12.20
2019-03-08T13:04:33.475Z,12.10
2019-03-08T13:07:42.197Z,11.80
2019-03-08T13:10:14.778Z,11.60
2019-03-08T13:13:04.668Z,11.40
2019-03-08T13:15:36.364Z,11.10
2019-03-08T13:18:07.869Z,10.90
2019-03-08T13:20:39.261Z,10.80
2019-03-08T13:23:11.834Z,10.80
2019-03-08T13:25:43.387Z,10.80
2019-03-08T13:28:16.947Z,10.80
2019-03-08T13:30:48.820Z,10.70
2019-03-08T13:33:21.839Z,10.70
2019-03-08T13:35:53.823Z,10.70
2019-03-08T13:38:25.610Z,10.80
2019-03-08T13:40:57.065Z,11.10
2019-03-08T13:43:30.132Z,11.30
2019-03-08T13:46:01.774Z,11.40
2019-03-08T13:48:35.330Z,11.60
2019-03-08T13:51:06.748Z,11.60
2019-03-08T13:53:39.613Z,11.70
2019-03-08T13:56:11.047Z,11.60
2019-03-08T13:58:43.468Z,11.70
2019-03-08T14:01:15.318Z,11.70
2019-03-08T14:03:46.719Z,11.60
2019-03-08T14:06:19.277Z,11.50
2019-03-08T14:08:50.732Z,11.60
2019-03-08T14:11:22.188Z,11.70
2019-03-08T14:13:54.331Z,11.70
2019-03-08T14:16:26.187Z,11.80
2019-03-08T14:18:57.960Z,11.70
2019-03-08T14:21:29.536Z,11.70
2019-03-08T14:24:00.815Z,11.70
2019-03-08T14:26:34.174Z,11.60
2019-03-08T14:29:05.459Z,11.60
2019-03-08T14:31:56.673Z,11.50
2019-03-08T14:34:28.055Z,11.40
2019-03-08T14:37:00.163Z,11.30
2019-03-08T14:39:32.157Z,11.20
2019-03-08T14:42:25.422Z,11.20
2019-03-08T14:45:21.713Z,11.10
2019-03-08T14:47:56.004Z,11.00
2019-03-08T14:50:27.739Z,11.00
2019-03-08T14:52:59.091Z,11.00
2019-03-08T14:55:30.569Z,10.90
2019-03-08T14:58:04.064Z,10.90
2019-03-08T15:00:35.573Z,10.80
2019-03-08T15:03:06.851Z,10.80
2019-03-08T15:05:38.249Z,10.80
2019-03-08T15:08:13.746Z,10.70
2019-03-08T15:10:43.562Z,10.60
2019-03-08T15:13:16.061Z,10.60
2019-03-08T15:15:47.423Z,10.70
2019-03-08T15:18:20.252Z,10.60
2019-03-08T15:20:54.782Z,10.50
2019-03-08T15:23:27.477Z,10.50
2019-03-08T15:25:58.499Z,10.50
2019-03-08T15:28:30.491Z,10.50
2019-03-08T15:31:01.972Z,10.40
2019-03-08T15:33:33.570Z,10.40
2019-03-08T15:36:05.137Z,10.40
2019-03-08T15:38:36.615Z,10.30
2019-03-08T15:41:09.821Z,10.30
2019-03-08T15:43:41.347Z,10.20
2019-03-08T15:46:13.285Z,10.20
2019-03-08T15:48:45.367Z,10.10
2019-03-08T15:51:20.852Z,10.10
2019-03-08T15:53:50.298Z,10.00
2019-03-08T15:56:22.749Z,10.00
2019-03-08T15:58:54.642Z,10.00
2019-03-08T16:01:27.792Z,9.90
2019-03-08T16:03:59.564Z,10.00
2019-03-08T16:06:32.780Z,10.00
2019-03-08T16:09:06.084Z,10.00
2019-03-08T16:11:39.238Z,10.10
2019-03-08T16:14:11.869Z,10.00
2019-03-08T16:16:43.295Z,10.00
2019-03-08T16:19:16.243Z,10.00
2019-03-08T16:21:50.663Z,10.10
2019-03-08T16:24:27.209Z,10.10
2019-03-08T16:26:58.807Z,10.10
2019-03-08T16:29:32.584Z,10.10
2019-03-08T16:32:21.304Z,10.10
2019-03-08T16:34:52.913Z,10.10
2019-03-08T16:37:49.179Z,10.00
2019-03-08T16:40:32.538Z,10.00
2019-03-08T16:43:26.434Z,9.90
2019-03-08T16:46:16.791Z,9.90
2019-03-08T16:49:05.776Z,9.90
2019-03-08T16:51:58.846Z,9.80
2019-03-08T16:54:58.747Z,9.70
2019-03-08T16:57:55.929Z,9.60
2019-03-08T17:00:55.890Z,9.60
2019-03-08T17:03:49.437Z,9.60
2019-03-08T17:06:43.868Z,9.60
2019-03-08T17:09:52.378Z,9.50
2019-03-08T17:12:37.069Z,9.50
2019-03-08T17:15:33.225Z,9.50
2019-03-08T17:18:41.967Z,9.50
2019-03-08T17:21:23.985Z,9.40
2019-03-08T17:24:03.153Z,9.40
2019-03-08T17:26:57.985Z,9.30
2019-03-08T17:29:37.288Z,9.30
2019-03-08T17:32:20.149Z,9.30
2019-03-08T17:35:09.257Z,9.20
2019-03-08T17:38:06.068Z,9.20
2019-03-08T17:40:54.183Z,9.20
2019-03-08T17:43:43.584Z,9.10
2019-03-08T17:46:37.096Z,9.10
2019-03-08T17:49:19.466Z,9.10
2019-03-08T17:52:12.065Z,9.00
2019-03-08T17:54:58.428Z,9.00
2019-03-08T17:57:59.288Z,9.00
2019-03-08T18:00:38.275Z,9.00
2019-03-08T18:03:35.357Z,9.10
2019-03-08T18:06:29.093Z,9.00
2019-03-08T18:09:16.921Z,9.00
2019-03-08T18:12:00.130Z,9.10
2019-03-08T18:14:42.299Z,9.10
2019-03-08T18:17:31.510Z,9.10
2019-03-08T18:20:20.819Z,8.90
2019-03-08T18:23:23.016Z,9.00
2019-03-08T18:26:19.351Z,9.00
2019-03-08T18:29:20.214Z,9.00
2019-03-08T18:32:00.509Z,9.00
2019-03-08T18:34:56.823Z,9.00
2019-03-08T18:38:05.422Z,8.90
2019-03-08T18:41:02.398Z,8.80
2019-03-08T18:43:58.715Z,8.50
2019-03-08T18:46:50.254Z,8.30
2019-03-08T18:49:48.506Z,8.10
2019-03-08T18:52:42.900Z,8.00
2019-03-08T18:55:42.896Z,8.00
2019-03-08T18:58:32.306Z,8.00
2019-03-08T19:01:26.252Z,8.00
2019-03-08T19:04:24.772Z,8.00
2019-03-08T19:07:15.748Z,7.90
2019-03-08T19:09:57.932Z,7.80
2019-03-08T19:12:55.420Z,7.70
2019-03-08T19:15:45.199Z,7.70
2019-03-08T19:18:44.317Z,7.60
2019-03-08T19:21:44.546Z,7.60
2019-03-08T19:24:34.746Z,7.60
2019-03-08T19:27:25.140Z,7.60
2019-03-08T19:30:27.991Z,7.50
2019-03-08T19:33:27.914Z,7.30
2019-03-08T19:36:08.772Z,7.40
2019-03-08T19:38:59.008Z,7.40
2019-03-08T19:41:36.427Z,7.40
2019-03-08T19:44:29.416Z,7.40
2019-03-08T19:47:25.933Z,7.50
2019-03-08T19:50:16.461Z,7.50
2019-03-08T19:53:19.042Z,7.40
2019-03-08T19:56:18.352Z,7.40
2019-03-08T19:59:09.190Z,7.40
2019-03-08T20:02:14.458Z,7.50
2019-03-08T20:05:03.468Z,7.50
2019-03-08T20:08:01.195Z,7.60
2019-03-08T20:10:50.795Z,7.60
2019-03-08T20:13:53.416Z,7.60
2019-03-08T20:16:49.576Z,7.60
2019-03-08T20:19:49.123Z,7.70
2019-03-08T20:22:43.649Z,7.70
2019-03-08T20:25:49.100Z,7.70
2019-03-08T20:28:45.903Z,7.70
2019-03-08T20:31:37.705Z,7.70
2019-03-08T20:34:16.467Z,7.70
2019-03-08T20:37:19.179Z,7.70
2019-03-08T20:40:07.737Z,7.70
2019-03-08T20:42:55.942Z,7.80
2019-03-08T20:45:43.141Z,7.80
2019-03-08T20:48:15.402Z,7.80
2019-03-08T20:50:48.410Z,7.80
2019-03-08T20:53:20.888Z,7.80
2019-03-08T20:55:52.347Z,7.80
2019-03-08T20:58:23.818Z,7.80
2019-03-08T21:00:56.379Z,7.90
2019-03-08T21:03:27.784Z,7.90
2019-03-08T21:05:59.499Z,7.90
2019-03-08T21:08:30.794Z,7.90
2019-03-08T21:11:02.106Z,8.00
2019-03-08T21:13:35.051Z,7.90
2019-03-08T21:16:06.846Z,7.90
2019-03-08T21:18:38.177Z,7.90
2019-03-08T21:21:09.452Z,7.90
2019-03-08T21:23:41.945Z,7.90
2019-03-08T21:26:14.493Z,7.90
2019-03-08T21:28:53.015Z,7.90
2019-03-08T21:31:25.379Z,7.90
2019-03-08T21:33:56.715Z,7.90
2019-03-08T21:36:30.125Z,8.00
2019-03-08T21:39:04.458Z,8.00
2019-03-08T21:41:38.181Z,8.00
2019-03-08T21:44:09.849Z,8.00
2019-03-08T21:46:41.383Z,8.00
2019-03-08T21:49:12.695Z,7.90
2019-03-08T21:51:44.285Z,7.90
2019-03-08T21:54:15.727Z,8.00
2019-03-08T21:56:47.063Z,8.10
2019-03-08T21:59:18.802Z,8.00
2019-03-08T22:01:50.323Z,8.00
2019-03-08T22:04:46.753Z,8.00
2019-03-08T22:07:18.463Z,8.00
2019-03-08T22:10:11.781Z,8.00
2019-03-08T22:12:44.224Z,8.00
2019-03-08T22:15:15.799Z,8.00
2019-03-08T22:17:47.243Z,8.00
2019-03-08T22:20:19.318Z,8.10
2019-03-08T22:22:51.987Z,8.00
2019-03-08T22:25:24.729Z,8.10
2019-03-08T22:27:56.616Z,8.10
2019-03-08T22:30:28.139Z,8.10
2019-03-08T22:32:59.473Z,8.10
2019-03-08T22:35:30.805Z,8.10
2019-03-08T22:38:04.041Z,8.20
2019-03-08T22:40:36.472Z,8.20
2019-03-08T22:43:07.959Z,8.20
2019-03-08T22:45:40.981Z,8.20
2019-03-08T22:48:12.308Z,8.20
2019-03-08T22:50:43.733Z,8.30
2019-03-08T22:53:15.411Z,8.20
2019-03-08T22:55:48.190Z,8.30
2019-03-08T22:58:19.697Z,8.40
2019-03-08T23:01:05.622Z,8.30
2019-03-08T23:03:41.709Z,8.30
2019-03-08T23:06:14.087Z,8.40
2019-03-08T23:08:45.488Z,8.40
2019-03-08T23:11:17.118Z,8.40
2019-03-08T23:13:48.372Z,8.40
2019-03-08T23:16:22.329Z,8.40
2019-03-08T23:18:53.586Z,8.40
2019-03-08T23:21:25.607Z,8.40
2019-03-08T23:23:57.115Z,8.40
2019-03-08T23:26:30.268Z,8.40
2019-03-08T23:29:09.211Z,8.50
2019-03-08T23:32:08.915Z,8.40
2019-03-08T23:34:40.817Z,8.40
2019-03-08T23:37:13.675Z,8.40
2019-03-08T23:39:46.545Z,8.40
2019-03-08T23:42:18.138Z,8.30
2019-03-08T23:44:49.728Z,8.20
2019-03-08T23:47:21.071Z,8.20
2019-03-08T23:49:52.682Z,8.20
2019-03-08T23:52:24.823Z,8.10
2019-03-08T23:54:56.023Z,8.10
2019-03-08T23:57:27.413Z,8.10
2019-03-08T23:59:59.208Z,8.20
